Metar z pełnej godziny Komunikat METAR ze strony awiacja.imgw.pl Metar G00 EPSC METAR EPSC 172100Z 08002KT 8000 NSC 08/07 Q1020 =